createdAt,value
2019-02-17T00:01:21.638Z,15.93
2019-02-17T00:03:52.091Z,15.72
2019-02-17T00:06:22.423Z,16.07
2019-02-17T00:08:52.763Z,16.15
2019-02-17T00:11:23.123Z,15.90
2019-02-17T00:13:53.600Z,15.53
2019-02-17T00:16:23.952Z,15.98
2019-02-17T00:18:54.383Z,16.20
2019-02-17T00:21:24.699Z,15.55
2019-02-17T00:23:56.202Z,15.05
2019-02-17T00:26:26.506Z,16.12
2019-02-17T00:28:59.841Z,14.83
2019-02-17T00:31:30.322Z,15.38
2019-02-17T00:34:00.969Z,15.20
2019-02-17T00:36:32.387Z,14.80
2019-02-17T00:39:04.444Z,14.03
2019-02-17T00:41:35.606Z,15.70
2019-02-17T00:44:05.963Z,15.75
2019-02-17T00:46:36.240Z,14.98
2019-02-17T00:49:06.585Z,15.23
2019-02-17T00:51:36.877Z,14.78
2019-02-17T00:54:07.335Z,15.32
2019-02-17T00:56:37.639Z,15.15
2019-02-17T00:59:10.438Z,15.63
2019-02-17T01:01:40.012Z,15.48
2019-02-17T01:04:10.517Z,16.20
2019-02-17T01:06:41.022Z,15.30
2019-02-17T01:09:11.572Z,14.85
2019-02-17T01:11:42.111Z,16.27
2019-02-17T01:14:13.237Z,14.83
2019-02-17T01:16:43.630Z,14.60
2019-02-17T01:19:14.079Z,15.43
2019-02-17T01:21:44.444Z,15.83
2019-02-17T01:24:14.759Z,15.13
2019-02-17T01:26:44.939Z,14.80
2019-02-17T01:29:20.305Z,15.30
2019-02-17T01:31:47.271Z,15.00
2019-02-17T01:34:17.591Z,15.23
2019-02-17T01:36:47.968Z,15.08
2019-02-17T01:39:18.191Z,15.10
2019-02-17T01:41:48.603Z,15.40
2019-02-17T01:44:19.178Z,15.13
2019-02-17T01:46:49.709Z,14.83
2019-02-17T01:49:20.115Z,15.63
2019-02-17T01:51:50.533Z,14.70
2019-02-17T01:54:20.913Z,14.85
2019-02-17T01:56:51.312Z,15.40
2019-02-17T01:59:30.414Z,14.95
2019-02-17T02:01:53.703Z,15.95
2019-02-17T02:04:24.162Z,15.00
2019-02-17T02:06:54.523Z,15.45
2019-02-17T02:09:24.834Z,15.08
2019-02-17T02:11:55.171Z,14.60
2019-02-17T02:14:25.603Z,15.38
2019-02-17T02:16:56.064Z,14.30
2019-02-17T02:19:26.500Z,14.30
2019-02-17T02:21:56.967Z,15.20
2019-02-17T02:24:27.312Z,15.63
2019-02-17T02:26:57.722Z,14.70
2019-02-17T02:29:28.063Z,15.28
2019-02-17T02:31:58.436Z,15.30
2019-02-17T02:34:28.920Z,15.32
2019-02-17T02:36:59.270Z,15.05
2019-02-17T02:39:29.700Z,14.43
2019-02-17T02:42:00.100Z,14.68
2019-02-17T02:44:30.519Z,14.95
2019-02-17T02:47:01.043Z,14.35
2019-02-17T02:49:31.369Z,15.40
2019-02-17T02:52:01.786Z,14.45
2019-02-17T02:54:32.156Z,15.03
2019-02-17T02:57:02.547Z,15.00
2019-02-17T02:59:33.048Z,14.83
2019-02-17T03:02:03.367Z,15.20
2019-02-17T03:04:35.086Z,14.65
2019-02-17T03:07:08.550Z,14.45
2019-02-17T03:09:38.861Z,13.88
2019-02-17T03:12:09.185Z,14.75
2019-02-17T03:14:39.548Z,13.30
2019-02-17T03:17:09.928Z,15.03
2019-02-17T03:19:40.271Z,14.60
2019-02-17T03:22:10.802Z,15.48
2019-02-17T03:24:41.409Z,15.08
2019-02-17T03:27:11.811Z,14.83
2019-02-17T03:29:42.107Z,14.85
2019-02-17T03:32:12.428Z,14.98
2019-02-17T03:34:42.743Z,14.25
2019-02-17T03:37:13.155Z,15.23
2019-02-17T03:39:43.546Z,13.85
2019-02-17T03:42:13.977Z,14.28
2019-02-17T03:44:44.445Z,13.90
2019-02-17T03:47:17.142Z,13.83
2019-02-17T03:49:47.567Z,14.30
2019-02-17T03:52:18.036Z,14.25
2019-02-17T03:54:48.440Z,14.78
2019-02-17T03:57:18.853Z,15.10
2019-02-17T03:59:49.249Z,14.75
2019-02-17T04:02:19.642Z,14.60
2019-02-17T04:04:50.240Z,14.35
2019-02-17T04:07:20.639Z,14.95
2019-02-17T04:09:50.963Z,14.23
2019-02-17T04:12:21.358Z,14.43
2019-02-17T04:14:51.690Z,14.58
2019-02-17T04:17:21.960Z,14.63
2019-02-17T04:19:52.281Z,14.80
2019-02-17T04:22:22.552Z,13.85
2019-02-17T04:24:52.905Z,15.23
2019-02-17T04:27:23.397Z,14.95
2019-02-17T04:29:53.768Z,14.23
2019-02-17T04:32:24.166Z,13.48
2019-02-17T04:34:54.607Z,14.60
2019-02-17T04:37:24.871Z,13.98
2019-02-17T04:39:55.277Z,14.45
2019-02-17T04:42:25.636Z,14.47
2019-02-17T04:44:55.993Z,13.72
2019-02-17T04:47:26.456Z,14.55
2019-02-17T04:49:56.785Z,15.18
2019-02-17T04:52:27.242Z,14.58
2019-02-17T04:54:57.747Z,14.28
2019-02-17T04:57:28.094Z,13.85
2019-02-17T04:59:58.466Z,14.55
2019-02-17T05:02:28.807Z,14.85
2019-02-17T05:04:59.219Z,13.70
2019-02-17T05:07:29.532Z,13.90
2019-02-17T05:09:59.984Z,14.90
2019-02-17T05:12:33.551Z,14.73
2019-02-17T05:14:59.771Z,13.93
2019-02-17T05:17:30.299Z,14.60
2019-02-17T05:20:00.607Z,13.60
2019-02-17T05:22:30.920Z,15.05
2019-02-17T05:25:01.227Z,14.15
2019-02-17T05:27:31.585Z,14.10
2019-02-17T05:30:02.086Z,14.55
2019-02-17T05:32:32.624Z,14.40
2019-02-17T05:35:03.141Z,14.33
2019-02-17T05:37:33.789Z,14.87
2019-02-17T05:40:04.443Z,14.45
2019-02-17T05:42:34.721Z,14.53
2019-02-17T05:45:05.296Z,14.55
2019-02-17T05:47:35.674Z,13.95
2019-02-17T05:50:06.513Z,14.70
2019-02-17T05:52:36.783Z,14.10
2019-02-17T05:55:07.410Z,13.83
2019-02-17T05:57:37.734Z,13.38
2019-02-17T06:00:09.003Z,14.07
2019-02-17T06:02:39.406Z,14.80
2019-02-17T06:05:09.771Z,13.78
2019-02-17T06:07:40.245Z,14.05
2019-02-17T06:10:10.572Z,14.43
2019-02-17T06:12:40.917Z,13.98
2019-02-17T06:15:14.386Z,15.08
2019-02-17T06:17:44.684Z,14.23
2019-02-17T06:20:14.983Z,13.55
2019-02-17T06:22:45.206Z,13.72
2019-02-17T06:25:15.680Z,14.73
2019-02-17T06:27:46.006Z,13.18
2019-02-17T06:30:16.385Z,14.38
2019-02-17T06:32:46.624Z,13.93
2019-02-17T06:35:17.034Z,14.00
2019-02-17T06:37:47.423Z,14.35
2019-02-17T06:40:17.842Z,13.13
2019-02-17T06:42:48.303Z,14.23
2019-02-17T06:45:19.741Z,13.60
2019-02-17T06:47:51.530Z,14.07
2019-02-17T06:50:21.875Z,13.53
2019-02-17T06:52:52.311Z,14.25
2019-02-17T06:55:44.467Z,14.05
2019-02-17T06:58:14.784Z,13.93
2019-02-17T07:00:50.547Z,15.03
2019-02-17T07:03:20.995Z,13.95
2019-02-17T07:05:57.455Z,13.60
2019-02-17T07:08:27.775Z,14.35
2019-02-17T07:10:58.232Z,14.03
2019-02-17T07:13:28.607Z,13.48
2019-02-17T07:15:58.939Z,14.05
2019-02-17T07:18:29.370Z,14.13
2019-02-17T07:20:59.893Z,13.80
2019-02-17T07:23:30.229Z,13.18
2019-02-17T07:26:00.573Z,13.58
2019-02-17T07:28:30.897Z,14.18
2019-02-17T07:31:01.329Z,13.55
2019-02-17T07:33:31.796Z,14.15
2019-02-17T07:36:02.297Z,13.90
2019-02-17T07:38:32.810Z,13.58
2019-02-17T07:41:03.138Z,13.43
2019-02-17T07:43:33.493Z,13.95
2019-02-17T07:46:03.884Z,13.53
2019-02-17T07:48:34.346Z,13.85
2019-02-17T07:51:04.636Z,12.75
2019-02-17T07:53:35.141Z,13.43
2019-02-17T07:56:05.611Z,13.98
2019-02-17T07:58:35.999Z,13.03
2019-02-17T08:01:07.318Z,13.83
2019-02-17T08:03:37.871Z,12.70
2019-02-17T08:06:08.292Z,12.90
2019-02-17T08:08:38.721Z,12.75
2019-02-17T08:11:09.048Z,13.08
2019-02-17T08:13:39.529Z,13.30
2019-02-17T08:16:09.930Z,13.28
2019-02-17T08:18:40.302Z,11.90
2019-02-17T08:21:10.683Z,12.55
2019-02-17T08:23:41.115Z,12.93
2019-02-17T08:26:11.528Z,12.88
2019-02-17T08:28:42.619Z,12.58
2019-02-17T08:31:13.159Z,11.88
2019-02-17T08:33:43.674Z,12.47
2019-02-17T08:36:14.137Z,12.37
2019-02-17T08:38:44.509Z,12.45
2019-02-17T08:41:14.889Z,12.78
2019-02-17T08:43:45.282Z,11.30
2019-02-17T08:46:15.712Z,12.23
2019-02-17T08:48:45.986Z,11.75
2019-02-17T08:51:17.709Z,12.25
2019-02-17T08:53:48.268Z,11.73
2019-02-17T08:56:18.824Z,11.75
2019-02-17T08:58:49.555Z,11.73
2019-02-17T09:01:19.943Z,12.37
2019-02-17T09:03:50.331Z,12.10
2019-02-17T09:06:20.734Z,11.73
2019-02-17T09:08:51.160Z,11.80
2019-02-17T09:11:21.479Z,10.78
2019-02-17T09:13:51.885Z,12.30
2019-02-17T09:16:22.286Z,11.80
2019-02-17T09:18:52.861Z,12.05
2019-02-17T09:21:23.268Z,11.20
2019-02-17T09:23:53.591Z,11.83
2019-02-17T09:26:23.948Z,11.10
2019-02-17T09:28:54.316Z,11.33
2019-02-17T09:31:24.876Z,10.63
2019-02-17T09:33:55.340Z,10.58
2019-02-17T09:36:25.619Z,10.98
2019-02-17T09:38:56.062Z,10.72
2019-02-17T09:41:26.531Z,10.70
2019-02-17T09:43:56.906Z,10.65
2019-02-17T09:46:27.331Z,9.88
2019-02-17T09:48:57.773Z,11.20
2019-02-17T09:51:28.338Z,10.85
2019-02-17T09:53:58.847Z,9.70
2019-02-17T09:56:29.263Z,10.63
2019-02-17T09:58:59.584Z,10.35
2019-02-17T10:01:29.975Z,9.68
2019-02-17T10:04:00.400Z,11.28
2019-02-17T10:06:30.775Z,10.13
2019-02-17T10:09:01.210Z,10.40
2019-02-17T10:11:33.326Z,10.10
2019-02-17T10:14:03.808Z,10.00
2019-02-17T10:16:34.491Z,10.32
2019-02-17T10:19:04.947Z,11.40
2019-02-17T10:21:35.366Z,10.50
2019-02-17T10:24:05.809Z,10.43
2019-02-17T10:26:36.086Z,9.93
2019-02-17T10:29:06.564Z,10.23
2019-02-17T10:31:37.008Z,9.70
2019-02-17T10:34:07.504Z,9.95
2019-02-17T10:36:38.105Z,10.35
2019-02-17T10:39:08.686Z,9.23
2019-02-17T10:41:39.310Z,10.70
2019-02-17T10:44:09.687Z,9.90
2019-02-17T10:46:40.061Z,10.55
2019-02-17T10:49:10.502Z,10.23
2019-02-17T10:51:40.959Z,9.90
2019-02-17T10:54:23.291Z,10.35
2019-02-17T10:56:53.684Z,9.60
2019-02-17T10:59:24.154Z,9.45
2019-02-17T11:01:54.569Z,9.23
2019-02-17T11:04:24.962Z,9.28
2019-02-17T11:06:55.372Z,9.40
2019-02-17T11:09:25.854Z,9.88
2019-02-17T11:11:56.273Z,9.25
2019-02-17T11:14:26.580Z,8.95
2019-02-17T11:16:56.940Z,9.88
2019-02-17T11:19:27.321Z,9.13
2019-02-17T11:21:57.565Z,9.03
2019-02-17T11:24:27.991Z,9.10
2019-02-17T11:26:58.368Z,9.28
2019-02-17T11:29:28.741Z,9.05
2019-02-17T11:31:59.019Z,8.80
2019-02-17T11:34:29.287Z,8.83
2019-02-17T11:36:59.563Z,9.03
2019-02-17T11:39:29.892Z,8.28
2019-02-17T11:42:00.257Z,9.13
2019-02-17T11:44:31.987Z,9.33
2019-02-17T11:47:02.348Z,8.68
2019-02-17T11:49:32.699Z,8.73
2019-02-17T11:52:03.023Z,8.35
2019-02-17T11:54:33.541Z,8.50
2019-02-17T11:57:03.974Z,9.18
2019-02-17T11:59:34.309Z,8.30
2019-02-17T12:02:04.743Z,8.75
2019-02-17T12:04:35.148Z,8.35
2019-02-17T12:07:05.389Z,7.97
2019-02-17T12:09:35.765Z,8.55
2019-02-17T12:12:06.229Z,8.73
2019-02-17T12:14:36.669Z,8.90
2019-02-17T12:17:07.044Z,8.30
2019-02-17T12:19:38.624Z,8.18
2019-02-17T12:22:34.162Z,8.18
2019-02-17T12:25:08.362Z,8.28
2019-02-17T12:27:52.328Z,8.70
2019-02-17T12:30:24.419Z,8.35
2019-02-17T12:32:54.884Z,7.83
2019-02-17T12:35:25.176Z,8.60
2019-02-17T12:37:55.475Z,8.30
2019-02-17T12:40:25.851Z,8.15
2019-02-17T12:42:56.245Z,8.40
2019-02-17T12:45:26.694Z,8.20
2019-02-17T12:47:58.395Z,8.20
2019-02-17T12:50:28.870Z,8.08
2019-02-17T12:52:59.175Z,7.65
2019-02-17T12:55:29.432Z,8.13
2019-02-17T12:57:59.788Z,8.23
2019-02-17T13:00:30.095Z,7.75
2019-02-17T13:03:00.539Z,8.10
2019-02-17T13:05:30.863Z,7.62
2019-02-17T13:08:01.214Z,7.83
2019-02-17T13:10:31.795Z,7.03
2019-02-17T13:13:04.594Z,7.20
2019-02-17T13:15:34.126Z,8.18
2019-02-17T13:18:04.591Z,7.22
2019-02-17T13:20:34.988Z,8.00
2019-02-17T13:23:05.432Z,7.35
2019-02-17T13:25:38.071Z,7.35
2019-02-17T13:28:07.799Z,7.30
2019-02-17T13:30:38.066Z,7.20
2019-02-17T13:33:09.267Z,7.22
2019-02-17T13:35:39.739Z,7.67
2019-02-17T13:38:10.099Z,6.53
2019-02-17T13:40:40.447Z,7.17
2019-02-17T13:43:10.749Z,6.60
2019-02-17T13:45:41.032Z,6.85
2019-02-17T13:48:11.436Z,7.00
2019-02-17T13:50:41.746Z,7.17
2019-02-17T13:53:12.323Z,7.58
2019-02-17T13:55:42.691Z,6.67
2019-02-17T13:58:14.169Z,6.83
2019-02-17T14:00:44.639Z,6.40
2019-02-17T14:03:15.058Z,6.83
2019-02-17T14:05:45.559Z,7.33
2019-02-17T14:08:16.022Z,6.50
2019-02-17T14:10:46.550Z,6.83
2019-02-17T14:13:16.946Z,6.87
2019-02-17T14:15:47.469Z,7.00
2019-02-17T14:18:18.020Z,6.78
2019-02-17T14:20:48.531Z,6.55
2019-02-17T14:23:18.954Z,6.85
2019-02-17T14:25:50.410Z,6.50
2019-02-17T14:28:20.901Z,6.25
2019-02-17T14:30:51.212Z,6.37
2019-02-17T14:33:21.638Z,6.08
2019-02-17T14:35:52.063Z,6.25
2019-02-17T14:38:22.470Z,6.37
2019-02-17T14:40:53.057Z,6.72
2019-02-17T14:43:23.467Z,5.80
2019-02-17T14:45:53.915Z,6.65
2019-02-17T14:48:24.340Z,6.80
2019-02-17T14:50:54.781Z,5.62
2019-02-17T14:53:25.263Z,6.37
2019-02-17T14:55:55.572Z,6.42
2019-02-17T14:58:27.569Z,6.47
2019-02-17T15:00:57.993Z,6.67
2019-02-17T15:03:28.472Z,6.30
2019-02-17T15:05:58.687Z,6.03
2019-02-17T15:08:29.071Z,6.28
2019-02-17T15:10:59.735Z,5.97
2019-02-17T15:13:30.096Z,5.85
2019-02-17T15:16:00.399Z,5.58
2019-02-17T15:18:30.744Z,5.58
2019-02-17T15:21:01.147Z,5.65
2019-02-17T15:23:31.490Z,6.00
2019-02-17T15:26:01.861Z,5.95
2019-02-17T15:28:32.424Z,6.30
2019-02-17T15:31:02.716Z,5.75
2019-02-17T15:33:33.084Z,6.25
2019-02-17T15:36:03.494Z,5.75
2019-02-17T15:38:33.927Z,5.53
2019-02-17T15:41:04.351Z,5.53
2019-02-17T15:43:34.716Z,5.50
2019-02-17T15:46:05.105Z,5.60
2019-02-17T15:48:35.670Z,5.70
2019-02-17T15:51:06.778Z,5.37
2019-02-17T15:53:37.326Z,6.20
2019-02-17T15:56:07.701Z,6.17
2019-02-17T15:58:37.973Z,6.00
2019-02-17T16:01:08.352Z,5.55
2019-02-17T16:03:38.782Z,5.42
2019-02-17T16:06:09.415Z,5.50
2019-02-17T16:08:39.705Z,5.53
2019-02-17T16:11:10.056Z,5.37
2019-02-17T16:13:40.341Z,5.40
2019-02-17T16:16:10.921Z,5.80
2019-02-17T16:18:41.374Z,5.53
2019-02-17T16:21:11.713Z,5.62
2019-02-17T16:23:42.118Z,5.58
2019-02-17T16:26:13.904Z,5.83
2019-02-17T16:28:44.484Z,5.15
2019-02-17T16:31:14.964Z,5.42
2019-02-17T16:33:45.389Z,6.05
2019-02-17T16:36:15.764Z,5.10
2019-02-17T16:38:46.126Z,5.25
2019-02-17T16:41:17.095Z,5.80
2019-02-17T16:43:47.681Z,5.37
2019-02-17T16:46:18.085Z,5.28
2019-02-17T16:48:48.615Z,5.50
2019-02-17T16:51:19.046Z,5.65
2019-02-17T16:53:49.390Z,5.25
2019-02-17T16:56:20.836Z,5.37
2019-02-17T16:58:51.348Z,5.08
2019-02-17T17:01:21.873Z,5.10
2019-02-17T17:03:52.396Z,5.40
2019-02-17T17:06:22.828Z,5.05
2019-02-17T17:08:53.137Z,5.65
2019-02-17T17:11:23.536Z,5.40
2019-02-17T17:13:53.934Z,5.00
2019-02-17T17:16:24.394Z,5.28
2019-02-17T17:18:54.812Z,5.20
2019-02-17T17:21:25.219Z,5.60
2019-02-17T17:23:55.996Z,5.47
2019-02-17T17:26:26.353Z,5.58
2019-02-17T17:28:56.811Z,4.70
2019-02-17T17:31:28.307Z,5.30
2019-02-17T17:33:58.785Z,5.30
2019-02-17T17:36:29.067Z,5.33
2019-02-17T17:38:59.553Z,5.25
2019-02-17T17:41:30.085Z,6.03
2019-02-17T17:44:00.444Z,5.50
2019-02-17T17:46:30.862Z,5.25
2019-02-17T17:49:01.245Z,5.50
2019-02-17T17:51:31.648Z,4.97
2019-02-17T17:54:02.087Z,5.33
2019-02-17T17:56:32.348Z,5.35
2019-02-17T17:59:02.767Z,5.85
2019-02-17T18:01:33.221Z,5.70
2019-02-17T18:04:03.637Z,5.28
2019-02-17T18:06:34.141Z,5.45
2019-02-17T18:09:04.979Z,5.33
2019-02-17T18:11:36.963Z,5.20
2019-02-17T18:14:07.376Z,5.87
2019-02-17T18:16:37.627Z,5.42
2019-02-17T18:19:07.999Z,5.47
2019-02-17T18:21:38.423Z,5.35
2019-02-17T18:24:08.830Z,5.28
2019-02-17T18:26:39.260Z,4.80
2019-02-17T18:29:09.569Z,5.62
2019-02-17T18:31:39.844Z,4.95
2019-02-17T18:34:10.108Z,4.95
2019-02-17T18:36:40.438Z,5.58
2019-02-17T18:39:11.413Z,5.17
2019-02-17T18:41:42.033Z,5.20
2019-02-17T18:44:12.459Z,4.67
2019-02-17T18:46:42.892Z,5.30
2019-02-17T18:49:13.317Z,4.50
2019-02-17T18:51:43.744Z,4.87
2019-02-17T18:54:14.165Z,5.05
2019-02-17T18:56:44.505Z,5.17
2019-02-17T18:59:17.516Z,4.85
2019-02-17T19:01:47.799Z,5.47
2019-02-17T19:04:19.324Z,4.87
2019-02-17T19:06:49.736Z,5.10
2019-02-17T19:09:20.266Z,5.15
2019-02-17T19:11:50.582Z,5.20
2019-02-17T19:14:20.961Z,4.87
2019-02-17T19:16:51.373Z,4.90
2019-02-17T19:19:21.686Z,5.12
2019-02-17T19:21:52.038Z,4.55
2019-02-17T19:24:22.505Z,4.78
2019-02-17T19:26:52.881Z,4.67
2019-02-17T19:29:23.399Z,5.08
2019-02-17T19:31:53.899Z,5.03
2019-02-17T19:34:24.287Z,5.50
2019-02-17T19:36:54.531Z,5.30
2019-02-17T19:39:25.003Z,5.30
2019-02-17T19:41:55.496Z,4.78
2019-02-17T19:44:25.784Z,5.15
2019-02-17T19:46:56.140Z,4.70
2019-02-17T19:49:26.527Z,4.95
2019-02-17T19:51:56.855Z,5.10
2019-02-17T19:54:27.256Z,5.10
2019-02-17T19:56:57.523Z,5.15
2019-02-17T19:59:39.276Z,5.25
2019-02-17T20:02:09.626Z,4.78
2019-02-17T20:04:43.053Z,4.90
2019-02-17T20:07:13.513Z,5.03
2019-02-17T20:09:44.080Z,4.72
2019-02-17T20:12:14.499Z,4.90
2019-02-17T20:14:44.867Z,4.92
2019-02-17T20:17:15.356Z,5.17
2019-02-17T20:19:45.804Z,5.12
2019-02-17T20:22:15.927Z,5.17
2019-02-17T20:24:46.428Z,5.30
2019-02-17T20:27:16.835Z,4.95
2019-02-17T20:29:47.333Z,5.05
2019-02-17T20:32:17.659Z,5.53
2019-02-17T20:34:48.061Z,5.00
2019-02-17T20:37:18.383Z,4.90
2019-02-17T20:39:49.038Z,4.55
2019-02-17T20:42:19.509Z,5.37
2019-02-17T20:44:49.963Z,5.28
2019-02-17T20:47:20.539Z,5.72
2019-02-17T20:49:50.895Z,5.10
2019-02-17T20:52:21.345Z,5.15
2019-02-17T20:54:51.753Z,5.33
2019-02-17T20:57:22.496Z,5.40
2019-02-17T20:59:52.944Z,5.20
2019-02-17T21:02:23.292Z,5.28
2019-02-17T21:04:53.618Z,5.05
2019-02-17T21:07:23.943Z,4.80
2019-02-17T21:09:54.273Z,5.03
2019-02-17T21:12:24.689Z,5.22
2019-02-17T21:14:55.095Z,4.97
2019-02-17T21:17:25.548Z,4.90
2019-02-17T21:19:55.955Z,5.15
2019-02-17T21:22:26.347Z,5.22
2019-02-17T21:24:56.803Z,4.92
2019-02-17T21:27:27.264Z,5.22
2019-02-17T21:29:57.663Z,5.30
2019-02-17T21:32:27.986Z,5.10
2019-02-17T21:34:58.283Z,5.12
2019-02-17T21:37:28.757Z,5.08
2019-02-17T21:39:59.163Z,4.95
2019-02-17T21:42:29.513Z,5.20
2019-02-17T21:44:59.961Z,4.87
2019-02-17T21:47:30.374Z,5.35
2019-02-17T21:50:03.402Z,5.00
2019-02-17T21:52:33.902Z,4.85
2019-02-17T21:55:05.990Z,5.80
2019-02-17T21:57:36.373Z,5.50
2019-02-17T22:00:07.650Z,5.03
2019-02-17T22:02:38.344Z,5.62
2019-02-17T22:05:08.792Z,5.45
2019-02-17T22:07:39.188Z,5.20
2019-02-17T22:10:10.428Z,5.15
2019-02-17T22:12:40.769Z,5.20
2019-02-17T22:15:15.120Z,6.05
2019-02-17T22:17:45.515Z,5.35
2019-02-17T22:20:16.049Z,6.15
2019-02-17T22:22:46.452Z,5.85
2019-02-17T22:25:16.789Z,6.85
2019-02-17T22:27:47.187Z,6.03
2019-02-17T22:30:17.528Z,6.17
2019-02-17T22:32:47.845Z,6.55
2019-02-17T22:35:18.186Z,6.70
2019-02-17T22:37:48.540Z,6.50
2019-02-17T22:40:18.873Z,5.97
2019-02-17T22:42:49.399Z,6.03
2019-02-17T22:45:19.785Z,5.05
2019-02-17T22:47:50.173Z,5.83
2019-02-17T22:50:20.675Z,5.70
2019-02-17T22:52:50.968Z,5.65
2019-02-17T22:55:21.222Z,5.90
2019-02-17T22:57:51.552Z,6.37
2019-02-17T23:00:49.448Z,6.58
2019-02-17T23:03:20.543Z,5.42
2019-02-17T23:05:50.946Z,6.22
2019-02-17T23:08:21.503Z,6.47
2019-02-17T23:10:51.913Z,6.90
2019-02-17T23:13:22.511Z,7.35
2019-02-17T23:15:53.016Z,7.10
2019-02-17T23:18:23.532Z,6.95
2019-02-17T23:20:53.885Z,7.33
2019-02-17T23:23:24.348Z,6.95
2019-02-17T23:25:54.944Z,6.60
2019-02-17T23:28:25.435Z,7.90
2019-02-17T23:30:55.962Z,7.45
2019-02-17T23:33:26.319Z,7.47
2019-02-17T23:35:56.801Z,7.62
2019-02-17T23:38:28.252Z,7.28
2019-02-17T23:40:58.831Z,7.78
2019-02-17T23:43:29.244Z,8.00
2019-02-17T23:45:59.604Z,7.80
2019-02-17T23:48:29.935Z,7.22
2019-02-17T23:51:00.422Z,8.23
2019-02-17T23:53:30.872Z,7.72
2019-02-17T23:56:01.234Z,7.62
2019-02-17T23:58:31.650Z,7.50
